createdAt,value
2022-09-18T00:01:28.564Z,82.55
2022-09-18T00:04:05.257Z,82.55
2022-09-18T00:06:41.451Z,82.60
2022-09-18T00:09:16.686Z,82.53
2022-09-18T00:11:51.420Z,82.38
2022-09-18T00:14:25.566Z,82.33
2022-09-18T00:16:58.576Z,82.36
2022-09-18T00:19:31.483Z,81.89
2022-09-18T00:22:04.497Z,82.51
2022-09-18T00:24:37.976Z,82.66
2022-09-18T00:27:10.609Z,82.73
2022-09-18T00:29:44.919Z,82.80
2022-09-18T00:32:17.880Z,82.91
2022-09-18T00:34:50.625Z,83.08
2022-09-18T00:37:23.635Z,83.21
2022-09-18T00:39:56.538Z,83.40
2022-09-18T00:42:29.289Z,83.64
2022-09-18T00:45:03.738Z,83.77
2022-09-18T00:47:42.281Z,83.85
2022-09-18T00:50:19.442Z,84.01
2022-09-18T00:52:58.966Z,84.22
2022-09-18T00:55:39.421Z,84.44
2022-09-18T00:58:13.029Z,84.62
2022-09-18T01:00:46.152Z,84.73
2022-09-18T01:03:19.071Z,84.90
2022-09-18T01:06:05.491Z,84.98
2022-09-18T01:08:56.456Z,85.08
2022-09-18T01:12:08.006Z,85.25
2022-09-18T01:14:50.288Z,85.49
2022-09-18T01:17:39.777Z,85.71
2022-09-18T01:20:32.134Z,85.88
2022-09-18T01:23:24.487Z,86.02
2022-09-18T01:26:29.367Z,86.15
2022-09-18T01:29:32.497Z,86.16
2022-09-18T01:32:19.293Z,86.36
2022-09-18T01:35:14.031Z,86.51
2022-09-18T01:37:47.507Z,86.66
2022-09-18T01:40:43.193Z,86.81
2022-09-18T01:43:19.038Z,86.99
2022-09-18T01:45:56.143Z,87.17
2022-09-18T01:48:37.746Z,87.28
2022-09-18T01:51:19.819Z,87.36
2022-09-18T01:54:01.428Z,87.48
2022-09-18T01:56:41.074Z,87.66
2022-09-18T01:59:18.676Z,87.79
2022-09-18T02:01:58.839Z,87.96
2022-09-18T02:04:34.329Z,88.04
2022-09-18T02:07:17.917Z,88.08
2022-09-18T02:09:52.466Z,88.09
2022-09-18T02:12:28.243Z,88.15
2022-09-18T02:15:06.418Z,88.23
2022-09-18T02:17:58.076Z,88.28
2022-09-18T02:20:33.403Z,88.36
2022-09-18T02:23:09.089Z,88.34
2022-09-18T02:25:55.732Z,88.36
2022-09-18T02:28:30.373Z,88.32
2022-09-18T02:31:02.379Z,88.26
2022-09-18T02:33:38.983Z,88.26
2022-09-18T02:36:37.627Z,88.32
2022-09-18T02:39:49.140Z,88.47
2022-09-18T02:42:53.003Z,88.65
2022-09-18T02:45:56.408Z,88.72
2022-09-18T02:48:55.041Z,88.82
2022-09-18T02:51:55.123Z,88.82
2022-09-18T02:54:44.869Z,88.79
2022-09-18T02:57:43.213Z,88.83
2022-09-18T03:00:19.025Z,88.84
2022-09-18T03:02:53.483Z,89.03
2022-09-18T03:05:30.530Z,89.05
2022-09-18T03:08:05.546Z,89.19
2022-09-18T03:10:39.175Z,89.16
2022-09-18T03:13:13.131Z,89.23
2022-09-18T03:15:46.242Z,89.33
2022-09-18T03:18:21.331Z,89.40
2022-09-18T03:20:54.275Z,89.45
2022-09-18T03:23:27.383Z,89.55
2022-09-18T03:26:03.729Z,89.60
2022-09-18T03:28:38.153Z,89.65
2022-09-18T03:31:12.303Z,89.64
2022-09-18T03:33:45.115Z,89.58
2022-09-18T03:36:18.849Z,89.61
2022-09-18T03:38:52.002Z,89.71
2022-09-18T03:41:25.320Z,89.67
2022-09-18T03:43:58.617Z,89.65
2022-09-18T03:46:31.596Z,89.52
2022-09-18T03:49:06.425Z,89.47
2022-09-18T03:51:39.830Z,89.34
2022-09-18T03:54:14.843Z,89.20
2022-09-18T03:56:58.443Z,89.02
2022-09-18T03:59:35.744Z,88.71
2022-09-18T04:02:14.093Z,88.47
2022-09-18T04:04:53.687Z,88.22
2022-09-18T04:07:43.723Z,88.03
2022-09-18T04:10:34.855Z,87.83
2022-09-18T04:13:08.662Z,87.77
2022-09-18T04:15:42.257Z,87.73
2022-09-18T04:18:15.170Z,87.63
2022-09-18T04:20:48.412Z,87.57
2022-09-18T04:23:21.467Z,87.46
2022-09-18T04:25:54.523Z,87.40
2022-09-18T04:28:28.990Z,87.26
2022-09-18T04:31:02.911Z,87.29
2022-09-18T04:33:36.558Z,87.16
2022-09-18T04:36:11.228Z,87.04
2022-09-18T04:38:44.481Z,86.82
2022-09-18T04:41:17.350Z,86.63
2022-09-18T04:43:50.567Z,86.68
2022-09-18T04:46:24.247Z,86.92
2022-09-18T04:48:57.255Z,87.13
2022-09-18T04:51:32.353Z,87.14
2022-09-18T04:54:05.888Z,87.22
2022-09-18T04:56:41.455Z,87.32
2022-09-18T04:59:13.764Z,87.51
2022-09-18T05:01:48.311Z,87.91
2022-09-18T05:04:22.510Z,88.31
2022-09-18T05:07:04.726Z,88.77
2022-09-18T05:09:39.751Z,89.04
2022-09-18T05:12:13.844Z,89.18
2022-09-18T05:14:47.043Z,89.18
2022-09-18T05:17:20.359Z,89.15
2022-09-18T05:20:08.340Z,88.92
2022-09-18T05:22:47.457Z,89.12
2022-09-18T05:25:21.947Z,89.35
2022-09-18T05:28:00.419Z,89.34
2022-09-18T05:30:47.241Z,89.47
2022-09-18T05:33:20.119Z,89.50
2022-09-18T05:35:56.309Z,89.42
2022-09-18T05:38:29.364Z,89.31
2022-09-18T05:41:04.086Z,89.29
2022-09-18T05:43:37.224Z,89.28
2022-09-18T05:46:14.725Z,89.38
2022-09-18T05:48:51.510Z,89.48
2022-09-18T05:51:24.263Z,89.54
2022-09-18T05:53:57.293Z,89.58
2022-09-18T05:56:43.876Z,89.39
2022-09-18T05:59:17.174Z,89.29
2022-09-18T06:01:51.790Z,89.31
2022-09-18T06:04:27.412Z,89.25
2022-09-18T06:07:02.630Z,88.98
2022-09-18T06:09:35.692Z,88.78
2022-09-18T06:12:09.501Z,88.70
2022-09-18T06:14:42.637Z,88.42
2022-09-18T06:17:15.784Z,88.50
2022-09-18T06:19:50.713Z,88.08
2022-09-18T06:22:23.434Z,87.95
2022-09-18T06:24:56.944Z,88.08
2022-09-18T06:27:31.984Z,88.79
2022-09-18T06:30:07.043Z,89.85
2022-09-18T06:32:40.574Z,90.72
2022-09-18T06:35:14.274Z,91.60
2022-09-18T06:37:47.264Z,92.40
2022-09-18T06:40:32.344Z,93.21
2022-09-18T06:43:16.250Z,93.66
2022-09-18T06:45:56.104Z,93.56
2022-09-18T06:48:30.575Z,92.76
2022-09-18T06:51:05.194Z,92.76
2022-09-18T06:53:41.276Z,92.55
2022-09-18T06:56:14.636Z,92.13
2022-09-18T06:58:47.640Z,91.73
2022-09-18T07:01:23.606Z,91.02
2022-09-18T07:03:58.453Z,89.97
2022-09-18T07:06:33.154Z,89.02
2022-09-18T07:09:06.015Z,88.49
2022-09-18T07:11:55.618Z,88.20
2022-09-18T07:14:30.161Z,87.51
2022-09-18T07:17:04.896Z,87.41
2022-09-18T07:19:38.756Z,87.20
2022-09-18T07:22:12.255Z,87.03
2022-09-18T07:24:46.713Z,86.74
2022-09-18T07:27:19.685Z,86.84
2022-09-18T07:29:54.199Z,87.23
2022-09-18T07:32:27.979Z,87.63
2022-09-18T07:35:01.763Z,87.95
2022-09-18T07:37:37.000Z,87.08
2022-09-18T07:40:12.965Z,85.73
2022-09-18T07:43:04.485Z,84.54
2022-09-18T07:45:40.085Z,83.62
2022-09-18T07:48:14.122Z,82.16
2022-09-18T07:50:48.932Z,81.50
2022-09-18T07:53:21.905Z,81.21
2022-09-18T07:55:57.667Z,80.39
2022-09-18T07:58:30.612Z,80.00
2022-09-18T08:01:06.618Z,79.46
2022-09-18T08:03:41.883Z,79.66
2022-09-18T08:06:17.964Z,79.72
2022-09-18T08:09:01.829Z,79.40
2022-09-18T08:11:55.539Z,79.44
2022-09-18T08:14:30.382Z,79.08
2022-09-18T08:17:21.530Z,78.58
2022-09-18T08:20:10.691Z,78.01
2022-09-18T08:22:51.349Z,77.09
2022-09-18T08:25:27.999Z,77.04
2022-09-18T08:28:03.671Z,77.06
2022-09-18T08:30:43.492Z,77.43
2022-09-18T08:33:18.454Z,78.10
2022-09-18T08:35:52.767Z,77.75
2022-09-18T08:38:37.841Z,77.54
2022-09-18T08:42:03.878Z,77.08
2022-09-18T08:44:46.887Z,76.43
2022-09-18T08:47:33.117Z,76.35
2022-09-18T08:50:32.878Z,76.71
2022-09-18T08:53:09.381Z,76.77
2022-09-18T08:55:59.371Z,76.65
2022-09-18T08:59:02.987Z,76.11
2022-09-18T09:01:53.880Z,76.14
2022-09-18T09:04:29.946Z,76.61
2022-09-18T09:07:26.196Z,76.29
2022-09-18T09:10:08.152Z,76.15
2022-09-18T09:13:37.564Z,75.49
2022-09-18T09:16:39.060Z,75.13
2022-09-18T09:19:32.788Z,74.31
2022-09-18T09:22:24.327Z,73.98
2022-09-18T09:25:35.999Z,73.70
2022-09-18T09:28:24.232Z,73.54
2022-09-18T09:31:08.413Z,73.44
2022-09-18T09:34:06.979Z,73.43
2022-09-18T09:36:53.491Z,72.69
2022-09-18T09:39:40.025Z,72.50
2022-09-18T09:42:38.883Z,72.52
2022-09-18T09:45:31.531Z,72.37
2022-09-18T09:48:29.075Z,71.64
2022-09-18T09:51:24.805Z,71.19
2022-09-18T09:54:00.315Z,70.63
2022-09-18T09:57:01.613Z,69.73
2022-09-18T10:00:01.834Z,69.52
2022-09-18T10:03:18.384Z,68.88
2022-09-18T10:06:00.027Z,68.04
2022-09-18T10:08:47.109Z,67.78
2022-09-18T10:11:20.599Z,67.73
2022-09-18T10:14:05.715Z,67.83
2022-09-18T10:16:46.452Z,67.61
2022-09-18T10:19:22.351Z,67.07
2022-09-18T10:21:56.392Z,66.65
2022-09-18T10:24:42.678Z,66.86
2022-09-18T10:27:17.524Z,66.88
2022-09-18T10:29:50.506Z,66.63
2022-09-18T10:32:37.974Z,65.65
2022-09-18T10:35:42.770Z,64.80
2022-09-18T10:38:34.463Z,64.49
2022-09-18T10:41:28.619Z,63.74
2022-09-18T10:44:23.455Z,63.24
2022-09-18T10:47:02.815Z,63.22
2022-09-18T10:49:51.258Z,62.83
2022-09-18T10:52:45.015Z,62.96
2022-09-18T10:55:28.684Z,62.63
2022-09-18T10:58:16.122Z,62.53
2022-09-18T11:01:08.532Z,62.34
2022-09-18T11:04:03.993Z,61.58
2022-09-18T11:06:39.948Z,61.29
2022-09-18T11:09:41.206Z,61.33
2022-09-18T11:12:24.293Z,61.09
2022-09-18T11:15:11.850Z,60.57
2022-09-18T11:17:52.803Z,59.83
2022-09-18T11:20:34.699Z,58.98
2022-09-18T11:23:35.799Z,58.42
2022-09-18T11:26:31.588Z,58.26
2022-09-18T11:29:27.834Z,57.79
2022-09-18T11:32:17.964Z,57.57
2022-09-18T11:35:01.574Z,57.34
2022-09-18T11:37:38.324Z,56.36
2022-09-18T11:40:29.194Z,55.91
2022-09-18T11:43:05.281Z,55.29
2022-09-18T11:45:49.370Z,54.50
2022-09-18T11:48:42.263Z,54.43
2022-09-18T11:51:24.582Z,52.72
2022-09-18T11:54:07.359Z,52.58
2022-09-18T11:56:52.596Z,50.84
2022-09-18T11:59:38.481Z,49.52
2022-09-18T12:02:39.804Z,49.80
2022-09-18T12:05:23.736Z,49.41
2022-09-18T12:08:00.261Z,49.03
2022-09-18T12:11:05.080Z,49.38
2022-09-18T12:13:45.944Z,48.72
2022-09-18T12:16:30.029Z,48.96
2022-09-18T12:19:10.940Z,47.73
2022-09-18T12:22:15.109Z,47.45
2022-09-18T12:24:48.502Z,47.14
2022-09-18T12:27:55.921Z,47.22
2022-09-18T12:30:39.991Z,47.65
2022-09-18T12:33:30.140Z,46.27
2022-09-18T12:36:06.677Z,46.36
2022-09-18T12:39:13.667Z,46.77
2022-09-18T12:42:00.562Z,46.79
2022-09-18T12:44:45.057Z,45.94
2022-09-18T12:47:56.186Z,45.64
2022-09-18T12:51:05.609Z,45.48
2022-09-18T12:54:06.160Z,45.61
2022-09-18T12:56:51.504Z,44.63
2022-09-18T12:59:53.185Z,44.48
2022-09-18T13:02:51.330Z,44.05
2022-09-18T13:05:45.870Z,44.38
2022-09-18T13:08:50.025Z,44.82
2022-09-18T13:11:44.340Z,44.93
2022-09-18T13:14:36.767Z,45.38
2022-09-18T13:17:18.321Z,45.38
2022-09-18T13:20:06.151Z,45.80
2022-09-18T13:22:39.785Z,46.23
2022-09-18T13:25:34.360Z,46.59
2022-09-18T13:28:13.771Z,46.68
2022-09-18T13:30:46.840Z,46.86
2022-09-18T13:33:27.772Z,46.99
2022-09-18T13:36:01.333Z,47.01
2022-09-18T13:38:35.855Z,46.83
2022-09-18T13:41:12.616Z,47.07
2022-09-18T13:43:57.350Z,47.05
2022-09-18T13:46:40.069Z,46.90
2022-09-18T13:49:32.205Z,47.38
2022-09-18T13:52:38.294Z,47.91
2022-09-18T13:55:18.469Z,48.18
2022-09-18T13:57:52.663Z,48.45
2022-09-18T14:00:28.328Z,48.83
2022-09-18T14:03:17.471Z,48.85
2022-09-18T14:05:50.774Z,48.99
2022-09-18T14:08:28.829Z,49.12
2022-09-18T14:11:15.509Z,49.34
2022-09-18T14:13:54.620Z,49.80
2022-09-18T14:16:36.120Z,50.03
2022-09-18T14:19:33.774Z,50.73
2022-09-18T14:22:26.628Z,51.04
2022-09-18T14:25:03.708Z,51.27
2022-09-18T14:27:52.290Z,51.67
2022-09-18T14:30:30.887Z,51.76
2022-09-18T14:33:19.781Z,51.83
2022-09-18T14:36:05.015Z,52.24
2022-09-18T14:38:41.168Z,52.29
2022-09-18T14:41:26.230Z,52.18
2022-09-18T14:44:04.435Z,52.41
2022-09-18T14:46:37.697Z,52.58
2022-09-18T14:49:15.271Z,52.79
2022-09-18T14:52:03.135Z,52.91
2022-09-18T14:54:26.280Z,53.31
2022-09-18T14:57:02.422Z,53.54
2022-09-18T14:59:35.565Z,53.75
2022-09-18T15:02:33.427Z,53.81
2022-09-18T15:05:13.624Z,53.70
2022-09-18T15:07:53.125Z,53.69
2022-09-18T15:10:28.518Z,53.85
2022-09-18T15:13:04.570Z,54.07
2022-09-18T15:15:40.354Z,53.84
2022-09-18T15:18:24.767Z,54.15
2022-09-18T15:21:02.356Z,53.92
2022-09-18T15:23:39.660Z,54.16
2022-09-18T15:26:15.884Z,54.19
2022-09-18T15:28:51.814Z,54.54
2022-09-18T15:31:32.843Z,54.56
2022-09-18T15:34:22.068Z,54.94
2022-09-18T15:37:04.203Z,55.35
2022-09-18T15:39:41.576Z,55.86
2022-09-18T15:42:21.446Z,56.37
2022-09-18T15:45:04.446Z,56.91
2022-09-18T15:47:41.469Z,57.36
2022-09-18T15:50:21.811Z,57.74
2022-09-18T15:53:01.700Z,58.18
2022-09-18T15:55:57.276Z,58.67
2022-09-18T15:58:37.664Z,58.95
2022-09-18T16:01:22.704Z,59.35
2022-09-18T16:04:18.317Z,59.70
2022-09-18T16:07:00.560Z,60.06
2022-09-18T16:09:46.823Z,60.29
2022-09-18T16:12:36.010Z,60.48
2022-09-18T16:15:22.261Z,60.70
2022-09-18T16:18:04.489Z,61.00
2022-09-18T16:20:42.772Z,61.18
2022-09-18T16:23:38.550Z,61.37
2022-09-18T16:26:37.851Z,61.44
2022-09-18T16:29:24.126Z,61.79
2022-09-18T16:31:57.850Z,61.94
2022-09-18T16:34:31.437Z,62.21
2022-09-18T16:37:05.971Z,62.42
2022-09-18T16:39:39.800Z,62.56
2022-09-18T16:42:20.085Z,62.92
2022-09-18T16:44:57.238Z,63.06
2022-09-18T16:47:30.198Z,63.40
2022-09-18T16:50:03.887Z,63.70
2022-09-18T16:52:36.281Z,63.84
2022-09-18T16:55:09.745Z,64.21
2022-09-18T16:57:42.459Z,64.40
2022-09-18T17:00:15.759Z,64.71
2022-09-18T17:02:49.459Z,64.96
2022-09-18T17:05:22.377Z,65.07
2022-09-18T17:07:55.756Z,65.30
2022-09-18T17:10:30.745Z,65.68
2022-09-18T17:13:04.291Z,65.96
2022-09-18T17:15:37.572Z,66.14
2022-09-18T17:18:10.633Z,66.30
2022-09-18T17:20:43.564Z,66.59
2022-09-18T17:23:16.410Z,66.71
2022-09-18T17:25:49.424Z,66.90
2022-09-18T17:28:22.389Z,67.14
2022-09-18T17:30:56.060Z,67.36
2022-09-18T17:33:29.012Z,67.51
2022-09-18T17:36:10.892Z,67.67
2022-09-18T17:38:44.766Z,67.91
2022-09-18T17:41:19.908Z,68.07
2022-09-18T17:43:53.958Z,68.12
2022-09-18T17:46:26.969Z,68.17
2022-09-18T17:49:01.343Z,68.36
2022-09-18T17:51:33.469Z,68.50
2022-09-18T17:54:07.369Z,68.66
2022-09-18T17:56:41.151Z,68.72
2022-09-18T17:59:14.453Z,69.05
2022-09-18T18:01:50.065Z,69.17
2022-09-18T18:04:22.971Z,69.35
2022-09-18T18:06:55.985Z,69.34
2022-09-18T18:09:30.588Z,69.20
2022-09-18T18:12:05.457Z,69.29
2022-09-18T18:14:37.453Z,69.28
2022-09-18T18:17:10.831Z,69.37
2022-09-18T18:19:44.233Z,69.45
2022-09-18T18:22:17.461Z,69.56
2022-09-18T18:24:51.266Z,69.71
2022-09-18T18:27:24.602Z,69.83
2022-09-18T18:29:57.859Z,69.87
2022-09-18T18:32:32.969Z,69.67
2022-09-18T18:35:06.979Z,69.27
2022-09-18T18:37:40.466Z,68.47
2022-09-18T18:40:14.698Z,67.97
2022-09-18T18:42:47.929Z,67.61
2022-09-18T18:45:22.687Z,67.62
2022-09-18T18:47:58.799Z,68.07
2022-09-18T18:50:33.636Z,68.68
2022-09-18T18:53:08.001Z,68.96
2022-09-18T18:55:43.167Z,69.04
2022-09-18T18:58:17.767Z,68.64
2022-09-18T19:00:50.859Z,68.11
2022-09-18T19:03:24.042Z,67.47
2022-09-18T19:05:57.827Z,66.40
2022-09-18T19:08:31.653Z,65.94
2022-09-18T19:11:05.512Z,65.48
2022-09-18T19:13:45.144Z,64.70
2022-09-18T19:16:19.802Z,64.20
2022-09-18T19:18:59.393Z,63.08
2022-09-18T19:21:32.330Z,62.34
2022-09-18T19:24:05.906Z,61.56
2022-09-18T19:26:41.176Z,61.27
2022-09-18T19:29:16.980Z,60.49
2022-09-18T19:31:51.147Z,60.28
2022-09-18T19:34:24.231Z,60.05
2022-09-18T19:36:58.189Z,60.11
2022-09-18T19:39:30.961Z,59.99
2022-09-18T19:42:14.991Z,59.93
2022-09-18T19:44:56.380Z,60.02
2022-09-18T19:47:33.100Z,60.34
2022-09-18T19:50:07.720Z,60.40
2022-09-18T19:52:43.903Z,60.70
2022-09-18T19:55:21.006Z,61.02
2022-09-18T19:57:59.593Z,61.42
2022-09-18T20:00:32.567Z,61.74
2022-09-18T20:03:05.384Z,62.00
2022-09-18T20:05:43.377Z,62.43
2022-09-18T20:08:17.357Z,62.93
2022-09-18T20:10:50.548Z,63.27
2022-09-18T20:13:23.972Z,63.66
2022-09-18T20:16:06.444Z,64.21
2022-09-18T20:18:40.732Z,64.76
2022-09-18T20:21:16.762Z,65.18
2022-09-18T20:23:49.918Z,66.26
2022-09-18T20:26:22.606Z,66.68
2022-09-18T20:28:55.540Z,67.45
2022-09-18T20:31:28.252Z,68.45
2022-09-18T20:34:02.717Z,69.14
2022-09-18T20:36:35.984Z,69.59
2022-09-18T20:39:08.921Z,69.87
2022-09-18T20:41:42.238Z,70.07
2022-09-18T20:44:15.671Z,69.91
2022-09-18T20:46:50.121Z,69.99
2022-09-18T20:49:25.095Z,70.18
2022-09-18T20:51:58.525Z,70.30
2022-09-18T20:54:31.756Z,70.22
2022-09-18T20:57:04.595Z,70.09
2022-09-18T20:59:39.494Z,70.08
2022-09-18T21:02:14.132Z,69.92
2022-09-18T21:04:50.142Z,69.95
2022-09-18T21:07:24.690Z,69.92
2022-09-18T21:09:58.891Z,70.14
2022-09-18T21:12:33.449Z,70.20
2022-09-18T21:15:14.083Z,70.33
2022-09-18T21:17:48.449Z,70.56
2022-09-18T21:20:21.806Z,70.70
2022-09-18T21:23:12.097Z,70.72
2022-09-18T21:25:44.958Z,69.76
2022-09-18T21:28:17.746Z,67.60
2022-09-18T21:30:50.580Z,66.37
2022-09-18T21:33:24.716Z,59.37
2022-09-18T21:35:57.451Z,52.78
2022-09-18T21:38:31.132Z,51.07
2022-09-18T21:41:10.234Z,50.89
2022-09-18T21:43:44.909Z,50.00
2022-09-18T21:46:20.601Z,48.60
2022-09-18T21:48:54.602Z,48.39
2022-09-18T21:51:27.232Z,48.35
2022-09-18T21:54:00.254Z,48.31
2022-09-18T21:56:34.054Z,48.10
2022-09-18T21:59:08.440Z,47.91
2022-09-18T22:01:43.056Z,48.46
2022-09-18T22:04:15.820Z,48.98
2022-09-18T22:06:50.817Z,49.10
2022-09-18T22:09:37.824Z,49.34
2022-09-18T22:12:13.105Z,50.00
2022-09-18T22:14:46.151Z,50.72
2022-09-18T22:17:19.170Z,51.52
2022-09-18T22:19:53.046Z,51.89
2022-09-18T22:22:27.154Z,52.44
2022-09-18T22:24:59.979Z,52.92
2022-09-18T22:27:32.827Z,53.71
2022-09-18T22:30:06.395Z,53.85
2022-09-18T22:32:39.232Z,54.39
2022-09-18T22:35:12.461Z,54.98
2022-09-18T22:37:45.052Z,55.31
2022-09-18T22:40:18.017Z,55.53
2022-09-18T22:42:50.960Z,55.83
2022-09-18T22:45:23.742Z,55.78
2022-09-18T22:47:56.627Z,56.11
2022-09-18T22:50:29.311Z,56.49
2022-09-18T22:53:02.283Z,56.57
2022-09-18T22:55:35.811Z,56.74
2022-09-18T22:58:08.534Z,56.97
2022-09-18T23:00:41.210Z,57.17
2022-09-18T23:03:13.868Z,57.64
2022-09-18T23:05:47.336Z,57.84
2022-09-18T23:08:20.536Z,58.24
2022-09-18T23:10:54.977Z,58.50
2022-09-18T23:13:27.484Z,58.56
2022-09-18T23:16:06.327Z,58.37
2022-09-18T23:18:40.355Z,58.24
2022-09-18T23:21:14.723Z,58.28
2022-09-18T23:23:48.527Z,58.64
2022-09-18T23:26:25.963Z,59.04
2022-09-18T23:29:00.355Z,59.56
2022-09-18T23:31:36.818Z,59.87
2022-09-18T23:34:14.124Z,60.04
2022-09-18T23:36:50.196Z,60.11
2022-09-18T23:39:28.841Z,60.14
2022-09-18T23:42:03.018Z,60.34
2022-09-18T23:44:35.985Z,60.64
2022-09-18T23:47:08.891Z,60.88
2022-09-18T23:49:41.596Z,61.00
2022-09-18T23:52:14.288Z,61.16
2022-09-18T23:54:47.156Z,61.46
2022-09-18T23:57:19.821Z,61.57
2022-09-18T23:59:53.427Z,61.89
